createdAt,value
2022-08-12T00:01:26.948Z,72.40
2022-08-12T00:04:38.778Z,72.60
2022-08-12T00:07:27.125Z,72.70
2022-08-12T00:10:14.362Z,72.70
2022-08-12T00:13:03.878Z,72.40
2022-08-12T00:15:52.327Z,72.90
2022-08-12T00:18:41.691Z,72.90
2022-08-12T00:21:27.476Z,72.80
2022-08-12T00:24:13.733Z,72.70
2022-08-12T00:27:02.743Z,72.80
2022-08-12T00:29:49.007Z,72.90
2022-08-12T00:32:36.728Z,73.20
2022-08-12T00:35:36.561Z,73.00
2022-08-12T00:38:24.313Z,73.20
2022-08-12T00:41:10.628Z,74.20
2022-08-12T00:43:38.912Z,74.10
2022-08-12T00:46:25.433Z,74.10
2022-08-12T00:48:56.699Z,74.40
2022-08-12T00:51:49.588Z,74.60
2022-08-12T00:54:19.352Z,74.50
2022-08-12T00:56:50.088Z,74.50
2022-08-12T00:59:25.663Z,74.40
2022-08-12T01:02:11.447Z,74.60
2022-08-12T01:05:01.604Z,75.00
2022-08-12T01:07:50.696Z,75.10
2022-08-12T01:10:37.588Z,75.30
2022-08-12T01:13:07.569Z,75.80
2022-08-12T01:15:51.877Z,76.00
2022-08-12T01:18:34.533Z,76.20
2022-08-12T01:21:45.789Z,76.30
2022-08-12T01:24:34.914Z,76.40
2022-08-12T01:27:07.523Z,76.60
2022-08-12T01:29:45.176Z,76.90
2022-08-12T01:32:19.398Z,76.90
2022-08-12T01:35:03.393Z,76.80
2022-08-12T01:37:48.049Z,76.70
2022-08-12T01:40:35.258Z,76.80
2022-08-12T01:43:15.412Z,76.70
2022-08-12T01:46:08.891Z,76.80
2022-08-12T01:49:16.201Z,76.90
2022-08-12T01:52:20.959Z,76.90
2022-08-12T01:54:47.858Z,76.80
2022-08-12T01:57:57.822Z,76.70
2022-08-12T02:00:20.227Z,76.60
2022-08-12T02:03:20.193Z,76.60
2022-08-12T02:06:27.357Z,76.70
2022-08-12T02:09:18.917Z,76.70
2022-08-12T02:12:27.646Z,76.80
2022-08-12T02:15:13.518Z,76.90
2022-08-12T02:17:57.267Z,76.90
2022-08-12T02:20:58.453Z,77.00
2022-08-12T02:23:28.251Z,77.20
2022-08-12T02:26:23.767Z,77.30
2022-08-12T02:28:52.517Z,77.30
2022-08-12T02:31:27.940Z,77.30
2022-08-12T02:33:56.093Z,77.30
2022-08-12T02:36:25.583Z,77.30
2022-08-12T02:38:55.654Z,77.20
2022-08-12T02:41:26.501Z,77.20
2022-08-12T02:44:09.416Z,77.20
2022-08-12T02:46:37.888Z,77.20
2022-08-12T02:49:30.126Z,77.30
2022-08-12T02:52:02.962Z,77.30
2022-08-12T02:54:30.409Z,77.20
2022-08-12T02:57:07.383Z,77.30
2022-08-12T02:59:35.876Z,77.40
2022-08-12T03:02:07.405Z,77.40
2022-08-12T03:04:42.942Z,77.40
2022-08-12T03:07:34.498Z,77.60
2022-08-12T03:10:37.095Z,77.60
2022-08-12T03:13:07.874Z,77.90
2022-08-12T03:15:36.111Z,77.90
2022-08-12T03:18:27.257Z,77.90
2022-08-12T03:21:00.160Z,77.70
2022-08-12T03:23:31.135Z,77.50
2022-08-12T03:26:05.937Z,77.50
2022-08-12T03:28:55.203Z,77.30
2022-08-12T03:31:30.220Z,77.30
2022-08-12T03:34:14.001Z,77.40
2022-08-12T03:36:47.630Z,77.30
2022-08-12T03:39:17.503Z,77.30
2022-08-12T03:41:59.231Z,77.40
2022-08-12T03:45:03.463Z,77.20
2022-08-12T03:48:01.706Z,77.20
2022-08-12T03:50:48.428Z,77.00
2022-08-12T03:53:41.526Z,77.20
2022-08-12T03:56:30.525Z,77.20
2022-08-12T03:59:22.257Z,77.20
2022-08-12T04:01:52.965Z,77.10
2022-08-12T04:04:23.750Z,77.10
2022-08-12T04:06:51.088Z,77.00
2022-08-12T04:09:29.197Z,77.00
2022-08-12T04:12:14.573Z,76.90
2022-08-12T04:14:42.498Z,77.00
2022-08-12T04:17:12.939Z,76.90
2022-08-12T04:19:40.998Z,76.80
2022-08-12T04:22:14.478Z,76.80
2022-08-12T04:24:50.367Z,76.70
2022-08-12T04:27:21.695Z,76.60
2022-08-12T04:30:21.253Z,76.40
2022-08-12T04:32:42.266Z,76.30
2022-08-12T04:35:13.258Z,76.20
2022-08-12T04:37:59.194Z,76.00
2022-08-12T04:40:31.651Z,75.90
2022-08-12T04:43:06.042Z,75.70
2022-08-12T04:45:58.588Z,75.50
2022-08-12T04:48:26.543Z,75.40
2022-08-12T04:50:55.551Z,75.20
2022-08-12T04:53:23.061Z,74.80
2022-08-12T04:55:53.541Z,73.90
2022-08-12T04:58:29.253Z,70.90
2022-08-12T05:00:58.781Z,68.20
2022-08-12T05:03:28.359Z,63.40
2022-08-12T05:06:16.991Z,59.80
2022-08-12T05:08:57.628Z,56.10
2022-08-12T05:11:25.434Z,51.80
2022-08-12T05:14:02.990Z,48.20
2022-08-12T05:16:34.227Z,45.40
2022-08-12T05:19:22.918Z,43.80
2022-08-12T05:21:50.768Z,42.80
2022-08-12T05:24:22.035Z,40.90
2022-08-12T05:26:53.064Z,40.40
2022-08-12T05:30:07.513Z,39.60
2022-08-12T05:32:24.963Z,38.40
2022-08-12T05:35:14.677Z,37.40
2022-08-12T05:38:22.733Z,37.30
2022-08-12T05:40:52.963Z,36.80
2022-08-12T05:43:33.386Z,36.00
2022-08-12T05:46:01.302Z,35.70
2022-08-12T05:48:34.589Z,34.90
2022-08-12T05:51:07.809Z,34.70
2022-08-12T05:53:46.080Z,34.60
2022-08-12T05:56:29.196Z,34.50
2022-08-12T05:59:09.909Z,33.90
2022-08-12T06:02:10.149Z,33.70
2022-08-12T06:04:34.490Z,33.80
2022-08-12T06:08:01.284Z,33.50
2022-08-12T06:10:13.218Z,33.20
2022-08-12T06:12:58.777Z,32.70
2022-08-12T06:15:38.293Z,32.30
2022-08-12T06:18:16.156Z,32.60
2022-08-12T06:21:06.147Z,32.30
2022-08-12T06:23:36.234Z,32.50
2022-08-12T06:26:17.249Z,32.10
2022-08-12T06:28:52.905Z,31.50
2022-08-12T06:31:33.292Z,30.90
2022-08-12T06:35:25.390Z,30.20
2022-08-12T06:37:13.157Z,29.80
2022-08-12T06:39:43.238Z,29.30
2022-08-12T06:42:43.333Z,29.40
2022-08-12T06:45:22.871Z,29.40
2022-08-12T06:47:57.124Z,29.20
2022-08-12T06:50:29.392Z,29.10
2022-08-12T06:53:06.459Z,28.80
2022-08-12T06:55:56.612Z,28.80
2022-08-12T06:58:35.996Z,28.60
2022-08-12T07:01:34.855Z,28.60
2022-08-12T07:04:33.829Z,28.20
2022-08-12T07:06:56.503Z,27.60
2022-08-12T07:10:01.328Z,27.00
2022-08-12T07:12:21.878Z,26.60
2022-08-12T07:14:58.354Z,26.40
2022-08-12T07:17:42.990Z,26.00
2022-08-12T07:20:51.072Z,25.80
2022-08-12T07:23:25.997Z,25.40
2022-08-12T07:25:58.353Z,25.60
2022-08-12T07:28:32.100Z,25.40
2022-08-12T07:31:00.346Z,25.50
2022-08-12T07:33:49.250Z,25.20
2022-08-12T07:36:27.691Z,24.80
2022-08-12T07:39:25.980Z,24.40
2022-08-12T07:42:01.066Z,24.50
2022-08-12T07:44:35.088Z,24.20
2022-08-12T07:47:05.522Z,24.60
2022-08-12T07:50:05.585Z,24.60
2022-08-12T07:52:58.193Z,25.20
2022-08-12T07:55:32.720Z,25.20
2022-08-12T07:58:13.074Z,25.10
2022-08-12T08:01:12.008Z,25.00
2022-08-12T08:04:31.078Z,25.00
2022-08-12T08:07:06.787Z,25.40
2022-08-12T08:10:27.526Z,25.10
2022-08-12T08:13:05.997Z,25.00
2022-08-12T08:16:03.116Z,24.70
2022-08-12T08:19:03.898Z,24.70
2022-08-12T08:25:34.274Z,24.20
2022-08-12T08:28:37.118Z,24.20
2022-08-12T08:31:08.797Z,24.70
2022-08-12T08:34:09.368Z,24.50
2022-08-12T08:36:49.367Z,24.50
2022-08-12T08:39:25.093Z,24.30
2022-08-12T08:43:03.712Z,24.00
2022-08-12T08:46:03.120Z,23.80
2022-08-12T08:48:54.503Z,23.90
2022-08-12T08:51:43.701Z,24.00
2022-08-12T08:54:37.852Z,24.10
2022-08-12T08:57:23.037Z,23.80
2022-08-12T09:00:32.549Z,23.60
2022-08-12T09:04:21.341Z,23.50
2022-08-12T09:06:10.772Z,23.30
2022-08-12T09:08:56.963Z,23.40
2022-08-12T09:12:07.280Z,23.40
2022-08-12T09:14:47.046Z,23.50
2022-08-12T09:18:15.567Z,23.40
2022-08-12T09:21:01.983Z,23.60
2022-08-12T09:24:08.010Z,23.70
2022-08-12T09:26:48.001Z,23.70
2022-08-12T09:30:11.840Z,23.70
2022-08-12T09:33:05.200Z,23.60
2022-08-12T09:35:28.483Z,23.90
2022-08-12T09:38:30.293Z,24.00
2022-08-12T09:42:32.852Z,23.90
2022-08-12T09:45:18.170Z,24.10
2022-08-12T09:48:36.758Z,24.20
2022-08-12T09:51:45.754Z,24.40
2022-08-12T09:54:35.259Z,24.40
2022-08-12T09:58:45.014Z,24.60
2022-08-12T10:00:28.929Z,24.70
2022-08-12T10:03:32.054Z,24.70
2022-08-12T10:06:27.410Z,25.00
2022-08-12T10:09:05.118Z,25.20
2022-08-12T10:12:11.288Z,25.60
2022-08-12T10:15:15.483Z,25.70
2022-08-12T10:18:07.841Z,25.90
2022-08-12T10:20:36.678Z,26.00
2022-08-12T10:23:40.255Z,26.20
2022-08-12T10:30:38.842Z,26.60
2022-08-12T10:32:44.510Z,26.80
2022-08-12T10:35:38.114Z,27.30
2022-08-12T10:38:33.496Z,27.80
2022-08-12T10:41:58.127Z,27.90
2022-08-12T10:44:19.530Z,28.00
2022-08-12T10:46:49.544Z,28.60
2022-08-12T10:50:05.709Z,28.80
2022-08-12T10:52:34.161Z,29.00
2022-08-12T10:55:12.997Z,29.20
2022-08-12T10:58:15.702Z,29.60
2022-08-12T11:00:55.601Z,29.80
2022-08-12T11:04:25.807Z,30.10
2022-08-12T11:07:07.995Z,30.20
2022-08-12T11:09:17.983Z,30.50
2022-08-12T11:12:54.741Z,30.80
2022-08-12T11:14:58.723Z,31.00
2022-08-12T11:17:52.725Z,31.20
2022-08-12T11:20:45.357Z,31.60
2022-08-12T11:23:25.088Z,31.40
2022-08-12T11:26:07.817Z,31.50
2022-08-12T11:28:42.057Z,31.70
2022-08-12T11:31:14.306Z,31.60
2022-08-12T11:34:06.517Z,31.80
2022-08-12T11:36:53.515Z,32.00
2022-08-12T11:42:17.312Z,32.50
2022-08-12T11:44:55.814Z,31.70
2022-08-12T11:47:23.459Z,32.00
2022-08-12T11:49:57.364Z,31.70
2022-08-12T11:52:55.552Z,31.50
2022-08-12T11:55:23.238Z,31.50
2022-08-12T11:58:16.299Z,31.70
2022-08-12T12:03:46.475Z,31.30
2022-08-12T12:06:18.103Z,31.60
2022-08-12T12:08:52.799Z,31.90
2022-08-12T12:11:27.633Z,31.90
2022-08-12T12:14:15.805Z,32.10
2022-08-12T12:16:50.079Z,32.10
2022-08-12T12:19:23.344Z,31.90
2022-08-12T12:22:00.083Z,32.10
2022-08-12T12:24:28.432Z,32.40
2022-08-12T12:27:05.211Z,32.40
2022-08-12T12:30:18.043Z,32.30
2022-08-12T12:32:42.060Z,32.60
2022-08-12T12:38:12.023Z,32.50
2022-08-12T12:40:50.375Z,32.90
2022-08-12T12:43:28.873Z,33.10
2022-08-12T12:46:06.463Z,33.00
2022-08-12T12:48:36.677Z,33.10
2022-08-12T12:51:48.453Z,33.10
2022-08-12T12:54:09.869Z,32.90
2022-08-12T12:56:43.214Z,32.60
2022-08-12T12:59:56.390Z,32.60
2022-08-12T13:02:08.392Z,32.20
2022-08-12T13:04:38.959Z,32.10
2022-08-12T13:07:07.128Z,31.70
2022-08-12T13:09:46.784Z,31.50
2022-08-12T13:12:34.222Z,31.40
2022-08-12T13:15:08.764Z,31.20
2022-08-12T13:18:01.889Z,31.30
2022-08-12T13:20:38.104Z,31.50
2022-08-12T13:23:37.191Z,31.70
2022-08-12T13:26:20.271Z,32.20
2022-08-12T13:28:55.929Z,32.50
2022-08-12T13:31:27.209Z,32.50
2022-08-12T13:34:32.131Z,32.40
2022-08-12T13:36:47.552Z,32.50
2022-08-12T13:39:16.258Z,32.20
2022-08-12T13:41:44.737Z,32.60
2022-08-12T13:44:13.307Z,32.40
2022-08-12T13:46:42.275Z,32.60
2022-08-12T13:49:53.705Z,32.80
2022-08-12T13:52:06.883Z,32.80
2022-08-12T13:54:34.579Z,33.00
2022-08-12T13:57:01.941Z,33.00
2022-08-12T13:59:48.246Z,33.00
2022-08-12T14:02:22.751Z,33.10
2022-08-12T14:04:56.153Z,33.00
2022-08-12T14:07:26.122Z,33.00
2022-08-12T14:10:19.815Z,33.00
2022-08-12T14:12:53.067Z,32.80
2022-08-12T14:15:37.323Z,33.00
2022-08-12T14:18:16.112Z,33.00
2022-08-12T14:21:00.198Z,32.80
2022-08-12T14:24:04.050Z,32.80
2022-08-12T14:26:20.548Z,32.80
2022-08-12T14:28:57.630Z,32.60
2022-08-12T14:31:31.770Z,32.50
2022-08-12T14:34:04.992Z,32.80
2022-08-12T14:36:35.571Z,32.80
2022-08-12T14:39:08.166Z,32.70
2022-08-12T14:41:48.703Z,32.80
2022-08-12T14:44:59.326Z,32.60
2022-08-12T14:47:37.821Z,32.70
2022-08-12T14:50:58.856Z,32.70
2022-08-12T14:59:56.341Z,32.70
2022-08-12T15:02:30.182Z,32.70
2022-08-12T15:06:05.580Z,32.70
2022-08-12T15:08:22.404Z,32.80
2022-08-12T15:11:06.859Z,32.80
2022-08-12T15:13:47.957Z,32.70
2022-08-12T15:16:44.585Z,32.70
2022-08-12T15:20:09.233Z,32.80
2022-08-12T15:22:39.416Z,32.80
2022-08-12T15:25:01.402Z,32.60
2022-08-12T15:28:20.397Z,32.70
2022-08-12T15:30:30.995Z,32.70
2022-08-12T15:33:12.825Z,32.70
2022-08-12T15:35:53.280Z,32.80
2022-08-12T15:38:27.531Z,32.80
2022-08-12T15:41:05.815Z,32.80
2022-08-12T15:44:15.858Z,32.70
2022-08-12T15:46:33.286Z,32.60
2022-08-12T15:49:16.669Z,32.70
2022-08-12T15:51:59.658Z,32.50
2022-08-12T15:54:42.287Z,32.50
2022-08-12T15:57:16.987Z,32.50
2022-08-12T16:00:02.364Z,32.60
2022-08-12T16:02:51.133Z,32.60
2022-08-12T16:06:12.714Z,32.70
2022-08-12T16:08:18.674Z,32.50
2022-08-12T16:10:59.023Z,32.50
2022-08-12T16:13:36.602Z,32.50
2022-08-12T16:16:23.973Z,32.50
2022-08-12T16:19:02.066Z,32.40
2022-08-12T16:21:51.059Z,32.50
2022-08-12T16:24:32.476Z,32.60
2022-08-12T16:27:14.955Z,32.60
2022-08-12T16:29:52.885Z,32.50
2022-08-12T16:32:31.652Z,32.60
2022-08-12T16:35:01.507Z,32.70
2022-08-12T16:38:25.159Z,32.90
2022-08-12T16:40:31.194Z,32.90
2022-08-12T16:43:08.710Z,32.80
2022-08-12T16:46:23.503Z,32.50
2022-08-12T16:48:35.693Z,32.60
2022-08-12T16:51:14.872Z,32.80
2022-08-12T16:53:49.891Z,32.80
2022-08-12T16:56:28.960Z,32.80
2022-08-12T16:59:00.032Z,32.90
2022-08-12T17:01:37.167Z,32.70
2022-08-12T17:04:15.887Z,33.00
2022-08-12T17:07:17.713Z,33.50
2022-08-12T17:09:50.620Z,33.70
2022-08-12T17:12:22.135Z,33.90
2022-08-12T17:14:53.463Z,34.00
2022-08-12T17:17:38.647Z,34.20
2022-08-12T17:20:34.674Z,34.20
2022-08-12T17:23:13.683Z,34.30
2022-08-12T17:25:48.345Z,34.40
2022-08-12T17:28:17.152Z,34.50
2022-08-12T17:30:57.411Z,34.50
2022-08-12T17:33:34.652Z,34.70
2022-08-12T17:36:06.020Z,34.80
2022-08-12T17:38:42.409Z,34.80
2022-08-12T17:41:23.342Z,34.80
2022-08-12T17:44:10.531Z,34.90
2022-08-12T17:46:45.904Z,35.10
2022-08-12T17:50:03.116Z,35.10
2022-08-12T17:52:22.021Z,35.20
2022-08-12T17:55:01.564Z,35.20
2022-08-12T17:57:29.665Z,35.30
2022-08-12T18:00:02.192Z,35.60
2022-08-12T18:02:35.267Z,35.90
2022-08-12T18:05:09.375Z,36.00
2022-08-12T18:07:39.666Z,36.10
2022-08-12T18:10:11.159Z,36.10
2022-08-12T18:12:51.028Z,36.30
2022-08-12T18:15:26.866Z,36.50
2022-08-12T18:18:17.194Z,36.70
2022-08-12T18:20:47.857Z,36.80
2022-08-12T18:23:24.310Z,36.80
2022-08-12T18:26:17.813Z,36.90
2022-08-12T18:28:48.380Z,37.20
2022-08-12T18:31:18.325Z,37.40
2022-08-12T18:33:46.731Z,37.60
2022-08-12T18:36:22.545Z,37.70
2022-08-12T18:38:56.200Z,38.00
2022-08-12T18:41:35.835Z,38.10
2022-08-12T18:44:12.130Z,38.10
2022-08-12T18:46:54.493Z,38.20
2022-08-12T18:49:39.700Z,38.70
2022-08-12T18:52:11.514Z,38.90
2022-08-12T18:54:49.052Z,39.30
2022-08-12T18:58:07.699Z,39.20
2022-08-12T19:00:21.140Z,39.40
2022-08-12T19:02:53.286Z,39.50
2022-08-12T19:05:45.823Z,39.70
2022-08-12T19:08:14.716Z,40.00
2022-08-12T19:10:50.780Z,40.40
2022-08-12T19:13:39.950Z,40.80
2022-08-12T19:16:11.554Z,41.00
2022-08-12T19:18:44.828Z,41.10
2022-08-12T19:21:16.087Z,41.20
2022-08-12T19:24:04.809Z,41.60
2022-08-12T19:26:37.742Z,41.60
2022-08-12T19:29:08.616Z,41.80
2022-08-12T19:31:56.356Z,41.80
2022-08-12T19:38:02.619Z,42.20
2022-08-12T19:40:31.149Z,42.90
2022-08-12T19:43:18.976Z,43.40
2022-08-12T19:45:57.535Z,43.30
2022-08-12T19:48:30.787Z,43.50
2022-08-12T19:51:09.214Z,43.50
2022-08-12T19:53:57.318Z,43.70
2022-08-12T19:56:32.935Z,43.80
2022-08-12T19:59:20.668Z,44.10
2022-08-12T20:02:03.161Z,44.40
2022-08-12T20:04:39.485Z,44.30
2022-08-12T20:07:23.877Z,44.20
2022-08-12T20:09:54.436Z,44.60
2022-08-12T20:12:31.677Z,44.70
2022-08-12T20:15:22.925Z,44.70
2022-08-12T20:17:57.671Z,45.00
2022-08-12T20:20:28.338Z,45.00
2022-08-12T20:22:55.953Z,44.80
2022-08-12T20:25:52.955Z,44.90
2022-08-12T20:28:23.878Z,45.00
2022-08-12T20:31:00.001Z,45.30
2022-08-12T20:33:50.615Z,45.80
2022-08-12T20:36:41.399Z,45.80
2022-08-12T20:39:37.356Z,46.50
2022-08-12T20:42:07.208Z,46.90
2022-08-12T20:44:41.222Z,46.80
2022-08-12T20:47:18.733Z,47.00
2022-08-12T20:49:55.926Z,47.00
2022-08-12T20:52:34.943Z,47.40
2022-08-12T20:55:04.889Z,48.10
2022-08-12T20:57:37.560Z,47.80
2022-08-12T21:00:28.045Z,48.00
2022-08-12T21:03:15.870Z,48.20
2022-08-12T21:06:12.348Z,48.40
2022-08-12T21:08:43.994Z,48.70
2022-08-12T21:11:24.773Z,49.20
2022-08-12T21:13:52.426Z,50.00
2022-08-12T21:16:35.787Z,49.80
2022-08-12T21:19:08.139Z,49.60
2022-08-12T21:21:49.773Z,49.70
2022-08-12T21:24:18.245Z,50.40
2022-08-12T21:26:53.601Z,50.40
2022-08-12T21:29:21.444Z,51.70
2022-08-12T21:32:40.165Z,52.00
2022-08-12T21:34:44.398Z,51.90
2022-08-12T21:37:27.357Z,52.30
2022-08-12T21:39:59.660Z,52.80
2022-08-12T21:42:42.087Z,52.70
2022-08-12T21:45:46.083Z,53.00
2022-08-12T21:48:02.673Z,53.40
2022-08-12T21:50:35.941Z,54.70
2022-08-12T21:53:10.265Z,55.40
2022-08-12T21:55:43.286Z,55.40
2022-08-12T21:58:13.103Z,55.60
2022-08-12T22:00:46.292Z,56.20
2022-08-12T22:04:10.756Z,56.60
2022-08-12T22:06:31.807Z,57.30
2022-08-12T22:09:16.233Z,57.40
2022-08-12T22:11:58.675Z,57.50
2022-08-12T22:14:29.242Z,57.80
2022-08-12T22:17:05.246Z,58.20
2022-08-12T22:19:35.398Z,58.90
2022-08-12T22:22:06.742Z,58.70
2022-08-12T22:24:36.433Z,58.90
2022-08-12T22:27:22.996Z,59.20
2022-08-12T22:30:21.095Z,60.10
2022-08-12T22:32:50.542Z,60.30
2022-08-12T22:35:47.558Z,60.70
2022-08-12T22:38:30.027Z,61.20
2022-08-12T22:41:02.407Z,62.00
2022-08-12T22:43:59.898Z,62.40
2022-08-12T22:46:42.970Z,62.70
2022-08-12T22:49:37.046Z,63.10
2022-08-12T22:52:22.790Z,63.20
2022-08-12T22:55:02.606Z,63.40
2022-08-12T22:57:53.818Z,63.70
2022-08-12T23:00:24.120Z,63.60
2022-08-12T23:02:56.954Z,64.10
2022-08-12T23:05:57.207Z,64.00
2022-08-12T23:08:29.882Z,65.20
2022-08-12T23:11:05.810Z,65.20
2022-08-12T23:13:48.547Z,65.40
2022-08-12T23:16:29.546Z,65.70
2022-08-12T23:19:10.775Z,65.90
2022-08-12T23:22:05.355Z,65.80
2022-08-12T23:24:56.545Z,65.90
2022-08-12T23:27:50.924Z,66.00
2022-08-12T23:30:32.486Z,66.00
2022-08-12T23:33:19.995Z,66.20
2022-08-12T23:36:02.902Z,66.00
2022-08-12T23:38:34.873Z,65.80
2022-08-12T23:41:06.237Z,66.00
2022-08-12T23:43:40.784Z,66.10
2022-08-12T23:46:19.435Z,66.00
2022-08-12T23:48:51.744Z,66.10
2022-08-12T23:51:24.739Z,66.00
2022-08-12T23:54:00.547Z,66.30
2022-08-12T23:56:34.025Z,66.40
2022-08-12T23:59:08.986Z,66.10
